FAWB/PRY METAR and TAF weather

Enter ICAO airport designator
Station Type Date Time Source
FAWB METAR 2022/06/29 00:00 UTC NOAA

FAWB 290000Z AUTO 20002KT //// // ////// 05/03 Q1033


Station Type Date Time Source
FAWB Decoded METAR 2022/06/29 00:00 UTC NOAA

Wonderboom / Pretoria, South Africa (FAWB) 25-39S 028-13E
Jun 28, 2022 - 08:00 PM EDT / 2022.06.29 0000 UTC
Wind: from the SSW (200 degrees) at 2 MPH (2 KT):0
Temperature: 41 F (5 C)
Dew Point: 37 F (3 C)
Relative Humidity: 86%
Pressure (altimeter): 30.50 in. Hg (1033 hPa)
ob: FAWB 290000Z AUTO 20002KT //// // ////// 05/03 Q1033
cycle: 0

Station Type Date Time Source
FAWB TAF 2021/05/05 07:00 UTC NOAA

TAF FAWB 050608Z 0507/0518 VRB03KT CAVOK TX24/0512Z TN15/0518Z

Example: see airport list